createdAt,value
2023-03-01T00:03:25.140Z,35.07
2023-03-01T00:07:29.564Z,36.83
2023-03-01T00:11:35.792Z,39.57
2023-03-01T00:15:41.468Z,32.93
2023-03-01T00:19:44.743Z,38.40
2023-03-01T00:23:49.703Z,36.07
2023-03-01T00:27:55.674Z,27.97
2023-03-01T00:32:02.830Z,38.77
2023-03-01T00:36:07.106Z,41.67
2023-03-01T00:40:16.046Z,35.43
2023-03-01T00:44:19.428Z,34.83
2023-03-01T00:48:22.795Z,33.40
2023-03-01T00:52:25.920Z,36.03
2023-03-01T00:56:31.694Z,33.03
2023-03-01T01:00:37.173Z,33.57
2023-03-01T01:04:40.233Z,37.30
2023-03-01T01:08:47.664Z,37.33
2023-03-01T01:12:52.102Z,31.50
2023-03-01T01:17:00.240Z,27.70
2023-03-01T01:21:07.113Z,26.87
2023-03-01T01:25:12.747Z,38.47
2023-03-01T01:29:17.385Z,34.43
2023-03-01T01:33:22.019Z,38.57
2023-03-01T01:37:33.330Z,31.63
2023-03-01T01:41:36.358Z,34.10
2023-03-01T01:45:45.724Z,39.10
2023-03-01T01:49:52.105Z,41.03
2023-03-01T01:54:03.607Z,42.77
2023-03-01T01:58:11.584Z,31.23
2023-03-01T02:02:19.340Z,36.17
2023-03-01T02:06:30.137Z,37.80
2023-03-01T02:10:36.806Z,36.77
2023-03-01T02:14:40.093Z,35.50
2023-03-01T02:18:45.761Z,38.97
2023-03-01T02:22:53.195Z,31.57
2023-03-01T02:26:59.828Z,32.03
2023-03-01T02:31:23.600Z,35.53
2023-03-01T02:35:26.833Z,33.00
2023-03-01T02:39:35.040Z,36.00
2023-03-01T02:43:40.282Z,30.27
2023-03-01T02:47:47.727Z,40.20
2023-03-01T02:52:03.779Z,33.73
2023-03-01T02:56:10.000Z,41.90
2023-03-01T03:00:20.609Z,39.23
2023-03-01T03:04:27.578Z,38.00
2023-03-01T03:08:30.658Z,33.10
2023-03-01T03:12:39.205Z,34.33
2023-03-01T03:16:44.824Z,39.50
2023-03-01T03:20:53.846Z,27.20
2023-03-01T03:25:00.027Z,36.77
2023-03-01T03:29:03.302Z,33.50
2023-03-01T03:33:13.458Z,37.67
2023-03-01T03:37:31.800Z,38.10
2023-03-01T03:41:39.516Z,41.03
2023-03-01T03:45:44.552Z,31.03
2023-03-01T03:49:50.015Z,28.10
2023-03-01T03:53:54.632Z,36.33
2023-03-01T03:58:03.119Z,39.70
2023-03-01T04:02:06.874Z,38.00
2023-03-01T04:06:10.054Z,36.77
2023-03-01T04:10:20.113Z,32.23
2023-03-01T04:14:23.512Z,39.80
2023-03-01T04:18:27.499Z,36.57
2023-03-01T04:22:30.972Z,21.83
2023-03-01T04:26:40.761Z,39.27
2023-03-01T04:30:44.917Z,24.13
2023-03-01T04:34:50.812Z,41.87
2023-03-01T04:38:58.974Z,38.07
2023-03-01T04:43:03.602Z,30.03
2023-03-01T04:47:09.243Z,37.00
2023-03-01T04:51:14.488Z,41.63
2023-03-01T04:55:20.431Z,36.30
2023-03-01T04:59:38.465Z,35.47
2023-03-01T05:03:48.356Z,35.50
2023-03-01T05:07:54.659Z,36.60
2023-03-01T05:12:07.958Z,42.63
2023-03-01T05:16:14.780Z,42.63
2023-03-01T05:20:24.192Z,38.20
2023-03-01T05:24:29.026Z,38.00
2023-03-01T05:28:32.640Z,36.50
2023-03-01T05:32:37.034Z,24.13
2023-03-01T05:36:42.698Z,43.60
2023-03-01T05:40:49.681Z,31.33
2023-03-01T05:44:52.674Z,40.60
2023-03-01T05:48:58.181Z,48.30
2023-03-01T05:53:08.893Z,31.73
2023-03-01T05:57:12.148Z,35.17
2023-03-01T06:01:17.926Z,43.80
2023-03-01T06:05:23.317Z,39.10
2023-03-01T06:09:27.078Z,51.73
2023-03-01T06:13:30.811Z,50.60
2023-03-01T06:17:38.377Z,38.10
2023-03-01T06:21:42.926Z,42.73
2023-03-01T06:25:45.984Z,51.37
2023-03-01T06:29:51.074Z,40.93
2023-03-01T06:33:56.356Z,43.83
2023-03-01T06:38:02.537Z,40.87
2023-03-01T06:42:06.225Z,47.63
2023-03-01T06:46:12.288Z,47.60
2023-03-01T06:50:19.726Z,46.53
2023-03-01T06:54:27.108Z,46.10
2023-03-01T06:58:32.527Z,43.10
2023-03-01T07:02:35.674Z,44.07
2023-03-01T07:06:41.206Z,50.50
2023-03-01T07:10:48.190Z,45.23
2023-03-01T07:14:51.294Z,46.93
2023-03-01T07:19:00.919Z,47.67
2023-03-01T07:23:04.023Z,42.57
2023-03-01T07:27:08.530Z,36.83
2023-03-01T07:31:11.656Z,35.93
2023-03-01T07:35:16.947Z,34.30
2023-03-01T07:39:20.034Z,36.40
2023-03-01T07:43:24.602Z,46.53
2023-03-01T07:47:27.908Z,37.43
2023-03-01T07:51:35.200Z,49.33
2023-03-01T07:55:38.928Z,53.03
2023-03-01T07:59:45.172Z,50.47
2023-03-01T08:03:48.342Z,44.33
2023-03-01T08:07:51.347Z,52.93
2023-03-01T08:11:55.553Z,39.77
2023-03-01T08:16:08.102Z,45.87
2023-03-01T08:20:13.664Z,48.93
2023-03-01T08:24:16.786Z,47.27
2023-03-01T08:28:19.888Z,40.67
2023-03-01T08:32:24.963Z,41.57
2023-03-01T08:36:29.778Z,38.30
2023-03-01T08:40:33.357Z,43.00
2023-03-01T08:44:39.644Z,33.63
2023-03-01T08:48:45.236Z,34.50
2023-03-01T08:52:48.270Z,37.23
2023-03-01T08:56:54.410Z,36.20
2023-03-01T09:01:04.332Z,42.60
2023-03-01T09:05:10.045Z,41.63
2023-03-01T09:09:17.281Z,43.63
2023-03-01T09:13:20.491Z,49.60
2023-03-01T09:17:23.563Z,46.67
2023-03-01T09:21:40.099Z,41.70
2023-03-01T09:25:44.511Z,42.23
2023-03-01T09:29:50.337Z,40.60
2023-03-01T09:33:56.566Z,44.17
2023-03-01T09:38:04.670Z,44.27
2023-03-01T09:42:16.636Z,41.40
2023-03-01T09:46:24.822Z,45.00
2023-03-01T09:50:32.299Z,49.30
2023-03-01T09:54:39.925Z,39.77
2023-03-01T09:58:53.051Z,40.57
2023-03-01T10:03:02.277Z,26.97
2023-03-01T10:07:26.765Z,39.93
2023-03-01T10:11:37.741Z,36.77
2023-03-01T10:15:47.735Z,34.03
2023-03-01T10:19:50.834Z,40.10
2023-03-01T10:24:14.426Z,32.03
2023-03-01T10:28:26.183Z,33.07
2023-03-01T10:32:32.353Z,31.63
2023-03-01T10:36:36.238Z,31.60
2023-03-01T10:40:54.546Z,26.57
2023-03-01T10:45:19.863Z,30.27
2023-03-01T10:49:24.255Z,26.33
2023-03-01T10:53:32.463Z,26.50
2023-03-01T10:57:43.116Z,29.63
2023-03-01T11:02:06.993Z,29.90
2023-03-01T11:06:24.252Z,25.33
2023-03-01T11:10:34.115Z,19.83
2023-03-01T11:14:44.142Z,19.63
2023-03-01T11:18:59.491Z,22.03
2023-03-01T11:23:07.993Z,19.30
2023-03-01T11:27:19.880Z,24.47
2023-03-01T11:31:25.623Z,24.27
2023-03-01T11:35:41.612Z,24.07
2023-03-01T11:39:54.578Z,20.53
2023-03-01T11:44:01.854Z,23.50
2023-03-01T11:48:26.220Z,23.70
2023-03-01T11:52:51.029Z,27.93
2023-03-01T11:57:00.305Z,24.30
2023-03-01T12:01:18.549Z,23.60
2023-03-01T12:06:06.946Z,19.07
2023-03-01T12:10:38.182Z,21.83
2023-03-01T12:14:57.413Z,20.63
2023-03-01T12:19:27.724Z,18.20
2023-03-01T12:24:01.605Z,20.77
2023-03-01T12:28:29.512Z,22.10
2023-03-01T12:32:51.278Z,27.67
2023-03-01T12:37:10.954Z,19.30
2023-03-01T12:41:29.888Z,25.37
2023-03-01T12:45:54.542Z,27.83
2023-03-01T12:50:02.318Z,25.10
2023-03-01T12:54:15.706Z,21.60
2023-03-01T12:58:47.230Z,26.87
2023-03-01T13:03:12.133Z,31.07
2023-03-01T13:07:27.496Z,25.97
2023-03-01T13:11:31.510Z,29.13
2023-03-01T13:15:38.729Z,26.80
2023-03-01T13:20:00.308Z,25.65
2023-03-01T13:24:03.441Z,26.93
2023-03-01T13:28:41.681Z,34.50
2023-03-01T13:32:45.369Z,31.67
2023-03-01T13:36:51.124Z,32.53
2023-03-01T13:41:03.427Z,32.13
2023-03-01T13:45:17.829Z,25.80
2023-03-01T13:49:23.668Z,28.05
2023-03-01T13:53:33.022Z,29.87
2023-03-01T13:57:40.413Z,38.73
2023-03-01T14:01:53.826Z,35.83
2023-03-01T14:06:13.706Z,31.67
2023-03-01T14:10:22.319Z,25.67
2023-03-01T14:14:37.059Z,34.53
2023-03-01T14:18:58.931Z,36.03
2023-03-01T14:23:11.225Z,35.63
2023-03-01T14:27:16.507Z,38.40
2023-03-01T14:31:46.985Z,33.17
2023-03-01T14:35:58.346Z,39.27
2023-03-01T14:40:04.649Z,34.10
2023-03-01T14:44:15.259Z,35.33
2023-03-01T14:48:21.232Z,42.33
2023-03-01T14:52:35.182Z,33.37
2023-03-01T14:56:47.963Z,34.70
2023-03-01T15:00:56.474Z,39.50
2023-03-01T15:05:02.931Z,30.80
2023-03-01T15:09:10.418Z,40.50
2023-03-01T15:13:23.739Z,33.67
2023-03-01T15:17:37.210Z,29.97
2023-03-01T15:21:43.782Z,30.53
2023-03-01T15:25:47.321Z,29.43
2023-03-01T15:29:52.625Z,32.53
2023-03-01T15:34:24.871Z,26.67
2023-03-01T15:38:31.668Z,31.97
2023-03-01T15:42:44.125Z,31.80
2023-03-01T15:46:49.439Z,42.77
2023-03-01T15:51:00.086Z,28.20
2023-03-01T15:55:06.615Z,28.47
2023-03-01T15:59:14.833Z,33.57
2023-03-01T16:03:25.549Z,29.83
2023-03-01T16:07:32.072Z,27.67
2023-03-01T16:11:37.750Z,31.93
2023-03-01T16:15:44.402Z,29.83
2023-03-01T16:19:47.455Z,27.83
2023-03-01T16:23:53.837Z,31.80
2023-03-01T16:28:09.240Z,33.13
2023-03-01T16:32:17.622Z,34.47
2023-03-01T16:36:24.512Z,28.63
2023-03-01T16:40:31.605Z,35.20
2023-03-01T16:44:36.706Z,28.90
2023-03-01T16:48:42.340Z,30.23
2023-03-01T16:52:48.224Z,37.20
2023-03-01T16:57:01.927Z,29.00
2023-03-01T17:01:09.627Z,32.70
2023-03-01T17:05:13.303Z,34.67
2023-03-01T17:09:18.484Z,35.33
2023-03-01T17:13:25.145Z,35.43
2023-03-01T17:17:28.380Z,34.93
2023-03-01T17:21:32.029Z,34.67
2023-03-01T17:25:35.213Z,36.00
2023-03-01T17:29:41.113Z,35.63
2023-03-01T17:33:44.153Z,33.83
2023-03-01T17:37:47.491Z,35.43
2023-03-01T17:41:53.488Z,36.23
2023-03-01T17:46:02.502Z,38.00
2023-03-01T17:50:06.620Z,36.80
2023-03-01T17:54:11.156Z,34.87
2023-03-01T17:58:15.560Z,40.23
2023-03-01T18:02:22.677Z,42.10
2023-03-01T18:06:28.131Z,38.47
2023-03-01T18:10:32.724Z,38.97
2023-03-01T18:14:35.741Z,37.27
2023-03-01T18:18:43.356Z,33.53
2023-03-01T18:22:49.422Z,35.63
2023-03-01T18:26:53.919Z,42.10
2023-03-01T18:31:00.813Z,33.47
2023-03-01T18:35:05.971Z,35.73
2023-03-01T18:39:17.877Z,40.17
2023-03-01T18:43:20.972Z,29.87
2023-03-01T18:47:25.869Z,35.23
2023-03-01T18:51:31.959Z,35.13
2023-03-01T18:55:38.899Z,32.63
2023-03-01T18:59:42.481Z,29.27
2023-03-01T19:03:45.701Z,26.77
2023-03-01T19:07:55.165Z,24.07
2023-03-01T19:12:00.968Z,32.70
2023-03-01T19:16:06.504Z,29.80
2023-03-01T19:20:12.947Z,31.83
2023-03-01T19:24:17.340Z,32.37
2023-03-01T19:28:20.455Z,27.90
2023-03-01T19:32:26.173Z,36.60
2023-03-01T19:36:33.501Z,27.13
2023-03-01T19:40:42.275Z,31.17
2023-03-01T19:44:45.490Z,31.27
2023-03-01T19:48:53.488Z,29.73
2023-03-01T19:52:59.150Z,30.57
2023-03-01T19:57:06.229Z,26.10
2023-03-01T20:01:20.670Z,31.87
2023-03-01T20:05:27.249Z,32.33
2023-03-01T20:09:30.336Z,31.43
2023-03-01T20:13:35.140Z,27.00
2023-03-01T20:17:40.148Z,28.53
2023-03-01T20:21:46.088Z,32.67
2023-03-01T20:25:51.969Z,27.37
2023-03-01T20:29:58.557Z,26.80
2023-03-01T20:34:02.062Z,31.07
2023-03-01T20:38:05.899Z,32.23
2023-03-01T20:42:09.188Z,28.53
2023-03-01T20:46:15.075Z,31.97
2023-03-01T20:50:20.737Z,25.63
2023-03-01T20:54:24.013Z,30.30
2023-03-01T20:58:27.348Z,35.93
2023-03-01T21:02:31.852Z,30.93
2023-03-01T21:06:45.441Z,30.70
2023-03-01T21:10:52.254Z,32.13
2023-03-01T21:14:55.428Z,31.97
2023-03-01T21:19:03.547Z,36.67
2023-03-01T21:23:09.722Z,37.30
2023-03-01T21:27:13.161Z,40.37
2023-03-01T21:31:17.806Z,41.53
2023-03-01T21:35:24.994Z,32.93
2023-03-01T21:39:31.323Z,39.03
2023-03-01T21:43:34.680Z,37.23
2023-03-01T21:47:39.475Z,34.20
2023-03-01T21:51:50.003Z,37.30
2023-03-01T21:55:53.086Z,40.17
2023-03-01T21:59:57.463Z,37.83
2023-03-01T22:04:04.537Z,26.17
2023-03-01T22:08:09.882Z,37.27
2023-03-01T22:12:13.085Z,34.63
2023-03-01T22:16:17.908Z,34.77
2023-03-01T22:20:25.386Z,41.00
2023-03-01T22:24:29.881Z,44.87
2023-03-01T22:28:35.922Z,37.13
2023-03-01T22:32:42.558Z,38.97
2023-03-01T22:36:46.892Z,44.63
2023-03-01T22:41:01.290Z,38.83
2023-03-01T22:45:04.843Z,33.43
2023-03-01T22:49:10.397Z,38.57
2023-03-01T22:53:14.436Z,34.10
2023-03-01T22:57:19.165Z,38.13
2023-03-01T23:01:24.413Z,37.00
2023-03-01T23:05:28.378Z,41.33
2023-03-01T23:09:34.482Z,37.40
2023-03-01T23:13:41.735Z,36.33
2023-03-01T23:17:44.920Z,37.97
2023-03-01T23:21:50.511Z,37.23
2023-03-01T23:25:59.275Z,43.93
2023-03-01T23:30:09.715Z,41.63
2023-03-01T23:34:12.971Z,27.07
2023-03-01T23:38:16.218Z,45.43
2023-03-01T23:42:22.441Z,30.77
2023-03-01T23:46:29.614Z,38.50
2023-03-01T23:50:32.785Z,35.40
2023-03-01T23:54:38.027Z,43.90
2023-03-01T23:58:41.237Z,22.30
